Time;durP1;ratioP1;P1;durP2;ratioP2;P2;SDS_P1;SDS_P2;PMS_P1;PMS_P2;Temp;Humidity;BMP_temperature;BMP_pressure;BME280_temperature;BME280_humidity;BME280_pressure;Samples;Min_cycle;Max_cycle;Signal;HPM_P1;HPM_P2
2022/10/15 00:00:40;;;;;;;87.03;46.22;;;16.10;99.90;;;;;;4896524;29;20024;-73
2022/10/15 00:03:06;;;;;;;87.90;44.28;;;16.20;99.90;;;;;;4879637;29;20112;-73
2022/10/15 00:05:31;;;;;;;94.53;47.90;;;16.20;99.90;;;;;;4895324;29;20454;-73
2022/10/15 00:07:57;;;;;;;86.43;45.95;;;16.20;99.90;;;;;;4895922;29;20522;-73
2022/10/15 00:10:23;;;;;;;90.18;45.25;;;16.20;99.90;;;;;;4896306;29;20163;-73
2022/10/15 00:12:48;;;;;;;92.35;45.67;;;16.20;99.90;;;;;;4896242;29;20035;-73
2022/10/15 00:15:15;;;;;;;93.45;46.30;;;16.20;99.90;;;;;;4896473;29;20037;-73
2022/10/15 00:17:40;;;;;;;91.15;46.10;;;16.20;99.90;;;;;;4878560;29;20052;-74
2022/10/15 00:20:09;;;;;;;89.18;46.63;;;16.20;99.90;;;;;;4898245;29;20495;-73
2022/10/15 00:22:35;;;;;;;85.88;46.30;;;16.20;99.90;;;;;;4899996;29;20029;-73
2022/10/15 00:25:01;;;;;;;89.25;46.05;;;16.10;99.90;;;;;;4899900;29;20051;-73
2022/10/15 00:27:26;;;;;;;90.38;46.78;;;16.10;99.90;;;;;;4899644;29;20055;-73
2022/10/15 00:29:52;;;;;;;83.85;45.38;;;16.10;99.90;;;;;;4899398;29;20483;-73
2022/10/15 00:32:18;;;;;;;92.22;45.90;;;16.10;99.90;;;;;;4898750;29;20040;-73
2022/10/15 00:34:43;;;;;;;88.43;44.80;;;16.10;99.90;;;;;;4899733;29;20043;-73
2022/10/15 00:37:09;;;;;;;91.90;47.90;;;16.10;99.90;;;;;;4882739;29;20040;-73
2022/10/15 00:39:36;;;;;;;89.68;44.35;;;16.10;99.90;;;;;;4882617;29;20035;-73
2022/10/15 00:42:02;;;;;;;89.13;44.22;;;16.10;99.90;;;;;;4899617;29;20977;-73
2022/10/15 00:44:28;;;;;;;89.00;46.22;;;16.10;99.90;;;;;;4899580;29;20020;-73
2022/10/15 00:47:02;;;;;;;92.30;46.47;;;16.10;99.90;;;;;;4899326;29;20101;-73
2022/10/15 00:49:30;;;;;;;85.68;42.75;;;16.10;99.90;;;;;;4882066;29;20040;-73
2022/10/15 00:52:12;;;;;;;86.85;45.22;;;16.10;99.90;;;;;;4899252;29;20116;-73
2022/10/15 00:54:46;;;;;;;94.20;45.92;;;16.10;99.90;;;;;;4898592;29;20032;-73
2022/10/15 00:57:15;;;;;;;89.72;45.42;;;16.10;99.90;;;;;;4899002;29;20037;-73
2022/10/15 00:59:48;;;;;;;86.68;44.97;;;16.10;99.90;;;;;;4898217;29;20115;-73
2022/10/15 01:02:14;;;;;;;;;;;16.10;99.90;;;;;;4899422;29;20028;-73
2022/10/15 01:04:41;;;;;;;95.57;45.33;;;16.10;99.90;;;;;;4899203;29;19915;-73
2022/10/15 01:07:07;;;;;;;90.85;45.67;;;16.00;99.90;;;;;;4898881;29;20180;-73
2022/10/15 01:09:33;;;;;;;92.63;46.47;;;16.00;99.90;;;;;;4898062;29;20100;-73
2022/10/15 01:11:59;;;;;;;93.88;46.60;;;16.00;99.90;;;;;;4897345;29;20037;-73
2022/10/15 01:14:28;;;;;;;87.82;45.90;;;16.00;99.90;;;;;;4898891;29;20047;-73
2022/10/15 01:17:03;;;;;;;88.97;45.30;;;16.00;99.90;;;;;;4898596;29;20064;-73
2022/10/15 01:19:35;;;;;;;92.15;46.35;;;16.00;99.90;;;;;;4897985;29;20028;-73
2022/10/15 01:22:26;;;;;;;88.75;44.63;;;16.00;99.90;;;;;;4898834;29;20031;-73
2022/10/15 01:25:19;;;;;;;87.15;44.70;;;16.00;99.90;;;;;;4898666;29;20029;-74
2022/10/15 01:27:53;;;;;;;87.78;45.17;;;16.00;99.90;;;;;;4897193;29;20032;-73
2022/10/15 01:30:44;;;;;;;88.15;45.40;;;16.00;99.90;;;;;;4897923;29;20041;-73
2022/10/15 01:33:50;;;;;;;83.70;45.90;;;16.00;99.90;;;;;;4874314;29;20522;-73
2022/10/15 01:36:31;;;;;;;85.28;44.63;;;16.00;99.90;;;;;;4898404;29;20115;-73
2022/10/15 01:39:05;;;;;;;91.65;46.03;;;16.00;99.90;;;;;;4897659;29;20040;-73
2022/10/15 01:41:43;;;;;;;82.53;43.53;;;16.00;99.90;;;;;;4897917;29;20062;-73
2022/10/15 01:44:21;;;;;;;88.70;43.83;;;16.00;99.90;;;;;;4898580;29;20084;-73
2022/10/15 01:47:06;;;;;;;86.75;42.78;;;16.00;99.90;;;;;;4894098;29;20423;-73
2022/10/15 01:49:41;;;;;;;83.32;44.33;;;16.00;99.90;;;;;;4897781;29;20044;-73
2022/10/15 01:52:16;;;;;;;84.03;43.78;;;16.00;99.90;;;;;;4881143;29;20180;-73
2022/10/15 01:54:44;;;;;;;87.45;44.63;;;16.00;99.90;;;;;;4879879;29;20514;-73
2022/10/15 01:57:11;;;;;;;92.28;45.00;;;16.10;99.90;;;;;;4897123;29;20052;-73
2022/10/15 01:59:37;;;;;;;90.95;45.15;;;16.10;99.90;;;;;;4880187;29;20444;-73
2022/10/15 02:02:03;;;;;;;93.82;45.75;;;16.00;99.90;;;;;;4898181;29;20081;-73
2022/10/15 02:04:30;;;;;;;89.10;45.30;;;16.00;99.90;;;;;;4897879;29;20563;-73
2022/10/15 02:07:10;;;;;;;83.53;44.58;;;16.00;99.90;;;;;;4897353;29;20055;-73
2022/10/15 02:10:11;;;;;;;91.30;44.58;;;16.10;99.90;;;;;;4898052;29;20104;-73
2022/10/15 02:13:21;;;;;;;88.38;44.63;;;16.10;99.90;;;;;;4888287;29;20048;-73
2022/10/15 02:15:56;;;;;;;86.30;45.47;;;16.10;99.90;;;;;;4880886;29;20491;-73
2022/10/15 02:18:57;;;;;;;89.20;46.58;;;16.10;99.90;;;;;;4897619;29;20510;-73
2022/10/15 02:22:14;;;;;;;98.03;47.85;;;16.10;99.90;;;;;;4851589;29;20075;-73
2022/10/15 02:24:49;;;;;;;92.57;46.70;;;16.10;99.90;;;;;;4827612;29;20500;-73
2022/10/15 02:27:17;;;;;;;92.32;46.10;;;16.10;99.90;;;;;;4888354;29;20096;-73
2022/10/15 02:29:44;;;;;;;92.03;46.67;;;16.10;99.90;;;;;;4897538;29;20090;-73
2022/10/15 02:32:13;;;;;;;87.38;44.95;;;16.10;99.90;;;;;;4897383;29;20112;-73
2022/10/15 02:34:39;;;;;;;91.00;46.17;;;16.10;99.90;;;;;;4896843;29;20033;-73
2022/10/15 02:37:06;;;;;;;89.30;47.50;;;16.10;99.90;;;;;;4879679;29;20165;-73
2022/10/15 02:39:33;;;;;;;92.50;47.00;;;16.10;99.90;;;;;;4897445;29;20028;-73
2022/10/15 02:41:59;;;;;;;96.68;46.70;;;16.10;99.90;;;;;;4894887;29;20049;-73
2022/10/15 02:44:26;;;;;;;89.85;45.45;;;16.10;99.90;;;;;;4897214;29;20068;-73
2022/10/15 02:46:51;;;;;;;91.28;46.78;;;16.10;99.90;;;;;;4897247;29;20437;-73
2022/10/15 02:49:17;;;;;;;87.28;45.50;;;16.10;99.90;;;;;;4891320;29;20088;-73
2022/10/15 02:51:43;;;;;;;89.03;47.40;;;16.10;99.90;;;;;;4882468;29;20048;-73
2022/10/15 02:54:09;;;;;;;91.15;46.70;;;16.10;99.90;;;;;;4890677;29;20111;-73
2022/10/15 02:56:38;;;;;;;70.25;37.65;;;16.10;99.90;;;;;;4893988;29;20084;-75
2022/10/15 02:59:04;;;;;;;82.55;44.42;;;16.20;99.90;;;;;;4897063;29;20035;-75
2022/10/15 03:01:31;;;;;;;92.95;45.80;;;16.20;99.90;;;;;;4880079;29;20380;-75
2022/10/15 03:03:57;;;;;;;95.65;47.65;;;16.20;99.90;;;;;;4896990;29;20092;-75
2022/10/15 03:06:23;;;;;;;92.13;46.60;;;16.20;99.90;;;;;;4896796;29;20457;-75
2022/10/15 03:08:48;;;;;;;95.80;46.38;;;16.20;99.90;;;;;;4880058;29;20033;-75
2022/10/15 03:11:14;;;;;;;92.18;47.53;;;16.20;99.90;;;;;;4897056;29;20028;-75
2022/10/15 03:13:40;;;;;;;93.88;47.13;;;16.20;99.90;;;;;;4896855;29;20079;-75
2022/10/15 03:16:08;;;;;;;91.70;47.40;;;16.20;99.90;;;;;;4880036;29;20029;-75
2022/10/15 03:18:34;;;;;;;93.00;46.83;;;16.20;99.90;;;;;;4896657;29;20165;-75
2022/10/15 03:20:59;;;;;;;95.38;48.22;;;16.20;99.90;;;;;;4896727;29;20108;-75
2022/10/15 03:23:26;;;;;;;98.10;49.30;;;16.20;99.90;;;;;;4896830;29;20029;-75
2022/10/15 03:25:53;;;;;;;96.03;47.47;;;16.20;99.90;;;;;;4879791;29;20028;-75
2022/10/15 03:28:19;;;;;;;97.90;47.97;;;16.20;99.90;;;;;;4879813;29;20046;-75
2022/10/15 03:30:44;;;;;;;100.00;49.13;;;16.20;99.90;;;;;;4896738;29;20052;-75
2022/10/15 03:33:10;;;;;;;97.90;48.03;;;16.20;99.90;;;;;;4880020;29;20494;-75
2022/10/15 03:35:37;;;;;;;94.72;47.67;;;16.10;99.90;;;;;;4879816;29;20071;-75
2022/10/15 03:38:03;;;;;;;93.80;48.03;;;16.10;99.90;;;;;;4896657;29;20479;-75
2022/10/15 03:40:32;;;;;;;99.88;46.50;;;16.10;99.90;;;;;;4896806;29;20032;-75
2022/10/15 03:42:57;;;;;;;90.13;46.92;;;16.10;99.90;;;;;;4896790;29;20387;-75
2022/10/15 03:45:24;;;;;;;97.65;50.60;;;16.10;99.90;;;;;;4896745;29;20016;-75
2022/10/15 03:47:50;;;;;;;95.45;49.08;;;16.10;99.90;;;;;;4896657;29;20456;-75
2022/10/15 03:50:16;;;;;;;95.15;48.03;;;16.00;99.90;;;;;;4896437;29;20107;-75
2022/10/15 03:52:41;;;;;;;90.72;48.63;;;16.10;99.90;;;;;;4879676;29;20132;-75
2022/10/15 03:55:08;;;;;;;97.00;47.88;;;16.00;99.90;;;;;;4898234;29;20037;-75
2022/10/15 03:57:34;;;;;;;93.25;47.47;;;16.00;99.90;;;;;;4900175;29;20100;-75
2022/10/15 04:00:01;;;;;;;102.78;50.42;;;16.00;99.90;;;;;;4900282;29;20025;-74
2022/10/15 04:02:26;;;;;;;94.35;47.83;;;16.00;99.90;;;;;;4900251;29;20044;-75
2022/10/15 04:04:53;;;;;;;96.70;48.40;;;16.00;99.90;;;;;;4899885;29;20409;-75
2022/10/15 04:07:19;;;;;;;101.07;49.20;;;15.90;99.90;;;;;;4899936;29;20062;-75
2022/10/15 04:09:46;;;;;;;98.63;48.50;;;15.90;99.90;;;;;;4899989;29;20037;-75
2022/10/15 04:12:12;;;;;;;99.72;49.78;;;15.90;99.90;;;;;;4883347;29;20032;-75
2022/10/15 04:14:38;;;;;;;102.57;49.65;;;15.90;99.90;;;;;;4900170;29;20480;-75
2022/10/15 04:17:04;;;;;;;102.90;50.58;;;15.90;99.90;;;;;;4900017;29;20130;-75
2022/10/15 04:19:29;;;;;;;97.28;48.33;;;15.90;99.90;;;;;;4900034;29;20036;-75
2022/10/15 04:21:55;;;;;;;105.80;51.45;;;15.90;99.90;;;;;;4899802;29;20099;-75
2022/10/15 04:24:21;;;;;;;104.15;49.05;;;15.90;99.90;;;;;;4883001;29;20407;-75
2022/10/15 04:26:47;;;;;;;98.70;48.60;;;15.90;99.90;;;;;;4899782;29;20371;-75
2022/10/15 04:29:13;;;;;;;100.90;48.72;;;15.90;99.90;;;;;;4899645;29;20032;-75
2022/10/15 04:31:39;;;;;;;101.63;49.83;;;15.90;99.90;;;;;;4899679;29;20032;-74
2022/10/15 04:34:04;;;;;;;94.93;48.33;;;15.90;99.90;;;;;;4899292;29;20372;-75
2022/10/15 04:36:30;;;;;;;91.38;46.72;;;16.00;99.90;;;;;;4899583;29;20079;-75
2022/10/15 04:38:56;;;;;;;105.60;50.50;;;16.00;99.90;;;;;;4882642;29;20097;-75
2022/10/15 04:41:25;;;;;;;93.55;47.50;;;16.00;99.90;;;;;;4899491;29;20531;-75
2022/10/15 04:43:51;;;;;;;96.97;48.75;;;16.00;99.90;;;;;;4899536;29;20032;-75
2022/10/15 04:46:17;;;;;;;101.38;48.45;;;16.00;99.90;;;;;;4899350;29;20040;-75
2022/10/15 04:48:43;;;;;;;99.50;48.53;;;16.10;99.90;;;;;;4899362;29;20499;-75
2022/10/15 04:51:13;;;;;;;95.00;48.25;;;16.10;99.90;;;;;;4899279;29;20029;-75
2022/10/15 04:53:39;;;;;;;99.88;48.03;;;16.10;99.90;;;;;;4899251;29;20100;-75
2022/10/15 04:56:07;;;;;;;101.80;49.03;;;16.10;99.90;;;;;;4899334;29;20016;-75
2022/10/15 04:58:34;;;;;;;95.78;46.53;;;16.10;99.90;;;;;;4898989;29;20071;-75
2022/10/15 05:01:06;;;;;;;94.45;47.63;;;16.10;99.90;;;;;;4899071;29;20028;-75
2022/10/15 05:03:32;;;;;;;98.63;49.13;;;16.00;99.90;;;;;;4882312;29;20060;-75
2022/10/15 05:06:07;;;;;;;100.53;49.17;;;16.00;99.90;;;;;;4898663;29;20056;-75
2022/10/15 05:08:34;;;;;;;95.97;47.42;;;15.90;99.90;;;;;;4899002;29;20092;-75
2022/10/15 05:11:11;;;;;;;96.70;49.03;;;15.90;99.90;;;;;;4898962;29;20084;-75
2022/10/15 05:13:37;;;;;;;104.00;50.85;;;15.90;99.90;;;;;;4899135;29;20064;-75
2022/10/15 05:16:11;;;;;;;98.90;47.83;;;15.90;99.90;;;;;;4898875;29;20514;-74
2022/10/15 05:18:38;;;;;;;96.65;48.25;;;15.90;99.90;;;;;;4881735;29;20029;-75
2022/10/15 05:21:04;;;;;;;107.32;49.65;;;15.90;99.90;;;;;;4898842;29;20410;-75
2022/10/15 05:23:30;;;;;;;104.43;50.17;;;15.90;99.90;;;;;;4898866;29;20012;-75
2022/10/15 05:26:00;;;;;;;102.78;49.85;;;15.90;99.90;;;;;;4898892;29;20035;-75
2022/10/15 05:28:26;;;;;;;96.35;48.47;;;15.90;99.90;;;;;;4898769;29;20108;-75
2022/10/15 05:30:52;;;;;;;100.15;49.50;;;15.90;99.90;;;;;;4898757;29;20111;-75
2022/10/15 05:33:18;;;;;;;99.53;49.13;;;15.90;99.90;;;;;;4898828;29;20111;-75
2022/10/15 05:35:43;;;;;;;98.78;48.83;;;15.90;99.90;;;;;;4898604;29;20052;-75
2022/10/15 05:38:09;;;;;;;96.78;50.30;;;15.90;99.90;;;;;;4899003;29;20025;-75
2022/10/15 05:40:34;;;;;;;102.53;52.05;;;15.90;99.90;;;;;;4899725;29;20028;-75
2022/10/15 05:43:00;;;;;;;103.55;49.53;;;15.90;99.90;;;;;;4898851;29;20088;-75
2022/10/15 05:45:26;;;;;;;101.88;49.38;;;16.00;99.90;;;;;;4899095;29;20036;-75
2022/10/15 05:47:55;;;;;;;103.60;49.67;;;15.90;99.90;;;;;;4898901;29;20475;-75
2022/10/15 05:50:21;;;;;;;93.65;47.75;;;16.00;99.90;;;;;;4899118;29;20044;-75
2022/10/15 05:52:48;;;;;;;105.03;48.85;;;16.00;99.90;;;;;;4899729;29;20395;-75
2022/10/15 05:55:13;;;;;;;103.30;49.25;;;16.00;99.90;;;;;;4899559;29;20033;-75
2022/10/15 05:57:40;;;;;;;97.72;48.78;;;16.00;99.90;;;;;;4898571;29;20562;-75
2022/10/15 06:00:06;;;;;;;100.40;48.97;;;16.00;99.90;;;;;;4881970;29;20503;-75
2022/10/15 06:02:32;;;;;;;101.15;48.17;;;16.00;99.90;;;;;;4899238;29;20532;-77
2022/10/15 06:04:58;;;;;;;98.93;49.25;;;16.00;99.90;;;;;;4913776;29;20411;-76
2022/10/15 06:07:23;;;;;;;103.72;49.38;;;16.00;99.90;;;;;;4887021;29;20036;-76
2022/10/15 06:09:49;;;;;;;100.13;48.15;;;16.00;99.90;;;;;;4893681;29;20103;-76
2022/10/15 06:12:15;;;;;;;97.15;48.08;;;16.10;99.90;;;;;;4909374;29;20388;-76
2022/10/15 06:14:40;;;;;;;100.20;49.05;;;16.10;99.90;;;;;;4899219;29;20047;-76
2022/10/15 06:17:09;;;;;;;100.63;46.90;;;16.00;99.90;;;;;;4898249;29;20032;-76
2022/10/15 06:19:35;;;;;;;101.40;49.35;;;16.00;99.90;;;;;;4899144;29;20024;-76
2022/10/15 06:22:00;;;;;;;105.13;50.05;;;16.00;99.90;;;;;;4882193;29;20086;-76
2022/10/15 06:24:26;;;;;;;102.65;47.83;;;16.10;99.90;;;;;;4897905;29;20080;-77
2022/10/15 06:26:52;;;;;;;103.70;48.47;;;16.10;99.90;;;;;;4897102;29;20495;-76
2022/10/15 06:29:17;;;;;;;107.88;48.55;;;16.10;99.90;;;;;;4895838;29;20033;-76
2022/10/15 06:31:43;;;;;;;97.32;48.83;;;16.10;99.90;;;;;;4895934;29;20024;-76
2022/10/15 06:34:09;;;;;;;97.65;49.20;;;16.10;99.90;;;;;;4893384;29;20033;-76
2022/10/15 06:36:34;;;;;;;102.07;48.75;;;16.10;99.90;;;;;;4893812;29;20115;-76
2022/10/15 06:39:00;;;;;;;95.93;48.05;;;16.10;99.90;;;;;;4872784;29;20032;-76
2022/10/15 06:41:26;;;;;;;105.45;49.38;;;16.20;99.90;;;;;;4892041;29;20028;-76
2022/10/15 06:43:53;;;;;;;99.07;49.08;;;16.20;99.90;;;;;;4874925;29;20553;-76
2022/10/15 06:46:18;;;;;;;102.97;48.08;;;16.30;99.90;;;;;;4892887;29;20387;-73
2022/10/15 06:48:44;;;;;;;94.55;47.90;;;16.30;99.90;;;;;;4894961;29;20033;-73
2022/10/15 06:51:10;;;;;;;100.60;49.67;;;16.30;99.90;;;;;;4896120;29;20024;-73
2022/10/15 06:53:39;;;;;;;99.50;47.70;;;16.40;99.90;;;;;;4900817;29;20044;-74
2022/10/15 06:56:05;;;;;;;107.82;49.47;;;16.40;99.90;;;;;;4910600;29;20031;-73
2022/10/15 06:58:30;;;;;;;100.63;48.08;;;16.40;99.90;;;;;;4912237;29;20032;-74
2022/10/15 07:01:04;;;;;;;101.30;47.83;;;16.40;99.90;;;;;;4902834;29;20035;-73
2022/10/15 07:03:31;;;;;;;97.53;47.63;;;16.40;99.90;;;;;;4897958;29;20132;-72
2022/10/15 07:06:02;;;;;;;100.57;48.08;;;16.50;99.90;;;;;;4908824;29;20048;-74
2022/10/15 07:08:28;;;;;;;105.25;48.45;;;16.50;99.90;;;;;;4893113;29;20037;-73
2022/10/15 07:10:54;;;;;;;100.00;48.28;;;16.60;99.90;;;;;;4893719;29;20028;-75
2022/10/15 07:13:19;;;;;;;96.97;47.00;;;16.60;99.90;;;;;;4894968;29;20483;-73
2022/10/15 07:15:48;;;;;;;99.65;47.80;;;16.70;99.90;;;;;;4900550;29;20061;-74
2022/10/15 07:18:14;;;;;;;103.88;49.13;;;16.70;99.90;;;;;;4881178;29;20567;-74
2022/10/15 07:20:39;;;;;;;95.68;46.80;;;16.70;99.90;;;;;;4897396;29;20144;-74
2022/10/15 07:23:05;;;;;;;101.13;48.40;;;16.70;99.90;;;;;;4897508;29;20024;-74
2022/10/15 07:25:31;;;;;;;99.93;48.60;;;16.70;99.90;;;;;;4894912;29;20032;-74
2022/10/15 07:27:57;;;;;;;100.90;48.85;;;16.80;99.90;;;;;;4896963;29;20065;-74
2022/10/15 07:30:26;;;;;;;102.05;48.45;;;16.80;99.90;;;;;;4896581;29;20614;-74
2022/10/15 07:32:52;;;;;;;99.88;46.90;;;16.80;99.90;;;;;;4893993;29;20032;-74
2022/10/15 07:35:18;;;;;;;101.90;47.20;;;16.90;99.90;;;;;;4892982;29;20109;-74
2022/10/15 07:37:43;;;;;;;92.47;47.05;;;16.90;99.90;;;;;;4893771;29;20119;-74
2022/10/15 07:40:10;;;;;;;100.15;47.08;;;17.00;99.90;;;;;;4892986;29;20033;-74
2022/10/15 07:42:35;;;;;;;99.55;49.30;;;17.00;99.90;;;;;;4892897;29;20028;-74
2022/10/15 07:45:01;;;;;;;94.15;46.08;;;17.10;99.90;;;;;;4877578;29;20025;-74
2022/10/15 07:47:27;;;;;;;91.22;46.88;;;17.20;99.90;;;;;;4893996;29;20569;-74
2022/10/15 07:49:52;;;;;;;95.78;44.58;;;17.30;99.90;;;;;;4894578;29;20036;-74
2022/10/15 07:52:18;;;;;;;90.95;46.17;;;17.30;99.90;;;;;;4894020;29;20043;-74
2022/10/15 07:54:44;;;;;;;91.95;47.55;;;17.30;99.90;;;;;;4876498;29;20056;-74
2022/10/15 07:57:09;;;;;;;96.22;47.25;;;17.40;99.90;;;;;;4893907;29;20436;-74
2022/10/15 07:59:35;;;;;;;95.75;47.67;;;17.40;99.90;;;;;;4876453;29;20024;-74
2022/10/15 08:02:04;;;;;;;99.18;48.50;;;17.40;99.90;;;;;;4874344;29;20484;-74
2022/10/15 08:04:29;;;;;;;92.47;46.63;;;17.40;99.90;;;;;;4875505;29;20033;-74
2022/10/15 08:06:55;;;;;;;97.05;48.42;;;17.50;99.90;;;;;;4877314;29;20376;-74
2022/10/15 08:09:21;;;;;;;95.30;46.67;;;17.50;99.90;;;;;;4876730;29;20032;-74
2022/10/15 08:11:47;;;;;;;87.18;45.80;;;17.60;99.90;;;;;;4875015;29;20041;-74
2022/10/15 08:14:13;;;;;;;87.78;45.65;;;17.60;99.90;;;;;;4876925;29;20060;-74
2022/10/15 08:16:38;;;;;;;94.63;44.08;;;17.70;99.90;;;;;;4893987;29;20088;-74
2022/10/15 08:19:04;;;;;;;98.95;46.45;;;17.80;99.90;;;;;;4893214;29;21056;-74
2022/10/15 08:21:30;;;;;;;96.25;44.63;;;17.90;99.90;;;;;;4893315;29;20021;-74
2022/10/15 08:23:56;;;;;;;93.55;46.22;;;17.90;99.90;;;;;;4892125;29;20017;-74
2022/10/15 08:26:22;;;;;;;89.45;44.28;;;17.90;99.90;;;;;;4891119;29;20053;-74
2022/10/15 08:28:48;;;;;;;92.97;43.25;;;18.00;99.90;;;;;;4893023;29;20054;-74
2022/10/15 08:31:13;;;;;;;95.07;44.20;;;18.00;99.90;;;;;;4887506;29;20036;-74
2022/10/15 08:33:39;;;;;;;91.55;44.28;;;18.00;99.90;;;;;;4875692;29;20055;-74
2022/10/15 08:36:05;;;;;;;90.32;45.28;;;18.00;99.90;;;;;;4893200;29;20028;-74
2022/10/15 08:38:31;;;;;;;88.20;45.30;;;18.00;99.90;;;;;;4895573;29;20033;-74
2022/10/15 08:40:59;;;;;;;90.28;45.67;;;18.10;99.90;;;;;;4898313;29;20075;-74
2022/10/15 08:43:45;;;;;;;96.53;44.63;;;18.10;99.90;;;;;;4899078;29;20496;-74
2022/10/15 08:46:33;;;;;;;95.70;44.08;;;18.20;99.90;;;;;;4899542;29;20025;-74
2022/10/15 08:49:00;;;;;;;97.63;49.20;;;18.20;99.90;;;;;;4879430;29;20655;-74
2022/10/15 08:51:44;;;;;;;102.05;49.17;;;18.20;99.90;;;;;;4879423;29;20617;-74
2022/10/15 08:54:16;;;;;;;114.38;52.10;;;18.20;99.90;;;;;;4880728;29;20016;-74
2022/10/15 08:56:53;;;;;;;118.38;54.55;;;18.30;99.90;;;;;;4896996;29;20428;-74
2022/10/15 08:59:30;;;;;;;105.60;53.80;;;18.30;99.90;;;;;;4880213;29;20036;-74
2022/10/15 09:02:25;;;;;;;101.28;52.08;;;18.30;99.90;;;;;;4896730;29;20541;-74
2022/10/15 09:05:04;;;;;;;109.55;51.33;;;18.40;99.90;;;;;;4878627;29;20056;-75
2022/10/15 09:07:35;;;;;;;96.55;47.85;;;18.40;99.90;;;;;;4896892;29;20032;-74
2022/10/15 09:10:34;;;;;;;107.47;50.13;;;18.40;99.90;;;;;;4897271;29;20032;-74
2022/10/15 09:13:15;;;;;;;93.75;46.95;;;18.40;99.90;;;;;;4896655;29;20037;-74
2022/10/15 09:15:59;;;;;;;96.18;46.10;;;18.50;99.90;;;;;;4896853;29;20033;-74
2022/10/15 09:18:30;;;;;;;88.22;45.08;;;18.50;99.90;;;;;;4896262;29;20029;-74
2022/10/15 09:20:58;;;;;;;102.57;46.40;;;18.60;99.90;;;;;;4894569;29;20021;-74
2022/10/15 09:23:29;;;;;;;97.35;47.40;;;18.60;99.90;;;;;;4896587;29;20039;-74
2022/10/15 09:26:15;;;;;;;103.85;51.50;;;18.70;99.90;;;;;;4896525;29;20021;-74
2022/10/15 09:28:58;;;;;;;95.10;47.45;;;18.70;99.90;;;;;;4896118;29;20039;-74
2022/10/15 09:31:30;;;;;;;100.18;47.60;;;18.80;99.90;;;;;;4894855;29;20029;-74
2022/10/15 09:34:10;;;;;;;95.45;44.63;;;18.80;99.90;;;;;;4895639;29;20029;-74
2022/10/15 09:36:44;;;;;;;93.95;47.33;;;18.90;99.90;;;;;;4895983;29;20056;-74
2022/10/15 09:39:31;;;;;;;93.53;45.40;;;19.00;99.90;;;;;;4895999;29;20035;-74
2022/10/15 09:42:23;;;;;;;89.15;42.88;;;19.00;99.90;;;;;;4896467;29;20722;-74
2022/10/15 09:44:50;;;;;;;94.80;46.47;;;19.00;99.90;;;;;;4895537;29;20032;-74
2022/10/15 09:47:32;;;;;;;91.53;42.05;;;19.00;99.90;;;;;;4895033;29;20396;-74
2022/10/15 09:49:57;;;;;;;89.78;44.83;;;19.00;99.90;;;;;;4897826;29;20033;-74
2022/10/15 09:52:51;;;;;;;92.55;44.60;;;19.10;99.90;;;;;;4880970;29;20510;-74
2022/10/15 09:55:32;;;;;;;98.32;47.25;;;19.10;99.90;;;;;;4882822;29;20035;-77
2022/10/15 09:58:03;;;;;;;85.72;42.03;;;19.10;99.90;;;;;;4882525;29;20381;-77
2022/10/15 10:00:51;;;;;;;96.35;45.90;;;19.20;99.90;;;;;;4881877;29;20021;-77
2022/10/15 10:03:16;;;;;;;90.40;44.22;;;19.20;99.90;;;;;;4893181;29;20028;-77
2022/10/15 10:05:44;;;;;;;88.50;43.90;;;19.30;99.90;;;;;;4896871;29;20151;-76
2022/10/15 10:08:21;;;;;;;90.15;43.95;;;19.20;99.90;;;;;;4896614;29;20025;-77
2022/10/15 10:11:03;;;;;;;89.57;44.85;;;19.20;99.90;;;;;;4896006;29;20043;-77
2022/10/15 10:13:49;;;;;;;88.45;44.35;;;19.30;99.90;;;;;;4879985;29;20024;-77
2022/10/15 10:16:18;;;;;;;86.32;43.25;;;19.30;99.90;;;;;;4880199;29;20032;-77
2022/10/15 10:18:59;;;;;;;86.43;41.78;;;19.30;99.90;;;;;;4896702;29;20086;-77
2022/10/15 10:21:31;;;;;;;90.85;44.70;;;19.40;99.90;;;;;;4896953;29;20118;-76
2022/10/15 10:24:17;;;;;;;;;;;19.40;99.90;;;;;;4897257;29;20028;-76
2022/10/15 10:26:43;;;;;;;87.32;44.38;;;19.40;99.90;;;;;;4879613;29;20034;-76
2022/10/15 10:29:18;;;;;;;85.78;42.38;;;19.40;99.90;;;;;;4896621;29;20509;-76
2022/10/15 10:31:48;;;;;;;87.07;42.83;;;19.40;99.90;;;;;;4896469;29;20032;-76
2022/10/15 10:34:19;;;;;;;94.88;47.15;;;19.50;99.90;;;;;;4879930;29;20036;-76
2022/10/15 10:36:50;;;;;;;90.63;47.97;;;19.60;99.90;;;;;;4896401;29;20029;-77
2022/10/15 10:39:35;;;;;;;94.95;49.33;;;19.60;99.90;;;;;;4896518;29;20039;-76
2022/10/15 10:42:24;;;;;;;100.05;47.22;;;19.60;99.90;;;;;;4896850;29;20029;-76
2022/10/15 10:44:52;;;;;;;100.93;50.75;;;19.70;99.90;;;;;;4897004;29;20029;-76
2022/10/15 10:47:24;;;;;;;93.18;48.60;;;19.70;99.90;;;;;;4880503;29;20036;-75
2022/10/15 10:49:57;;;;;;;94.38;48.78;;;19.70;99.90;;;;;;4881448;29;20127;-76
2022/10/15 10:52:37;;;;;;;92.93;46.90;;;19.80;99.90;;;;;;4897889;29;20028;-76
2022/10/15 10:55:23;;;;;;;91.07;46.42;;;19.90;99.90;;;;;;4898111;29;20036;-76
2022/10/15 10:57:53;;;;;;;88.55;46.80;;;19.90;99.90;;;;;;4897913;29;20029;-77
2022/10/15 11:00:34;;;;;;;86.93;44.78;;;19.90;99.90;;;;;;4894546;29;20032;-76
2022/10/15 11:03:01;;;;;;;94.32;47.92;;;19.90;99.90;;;;;;4895581;29;20016;-76
2022/10/15 11:05:29;;;;;;;100.00;50.53;;;19.80;99.90;;;;;;4894753;29;20044;-77
2022/10/15 11:08:13;;;;;;;107.75;51.30;;;19.90;99.90;;;;;;4891326;29;20029;-75
2022/10/15 11:11:11;;;;;;;87.95;43.58;;;19.90;99.90;;;;;;4895682;29;20028;-74
2022/10/15 11:13:42;;;;;;;82.63;43.85;;;19.90;99.90;;;;;;4894960;29;20736;-74
2022/10/15 11:16:31;;;;;;;100.00;47.42;;;19.80;99.90;;;;;;4877396;29;20172;-74
2022/10/15 11:19:07;;;;;;;93.95;45.40;;;19.80;99.90;;;;;;4894896;29;20024;-74
2022/10/15 11:22:10;;;;;;;91.68;47.70;;;19.70;99.90;;;;;;4897306;29;20032;-74
2022/10/15 11:25:00;;;;;;;85.32;44.90;;;19.80;99.90;;;;;;4897118;29;20033;-73
2022/10/15 11:27:32;;;;;;;94.30;46.90;;;19.80;99.90;;;;;;4897527;29;20428;-73
2022/10/15 11:30:15;;;;;;;87.07;44.10;;;19.80;99.90;;;;;;4897786;29;20035;-73
2022/10/15 11:32:52;;;;;;;88.55;45.65;;;19.80;99.90;;;;;;4894693;29;20043;-73
2022/10/15 11:35:35;;;;;;;84.20;44.05;;;19.80;99.90;;;;;;4875526;29;20082;-73
2022/10/15 11:38:36;;;;;;;88.13;43.03;;;19.80;99.90;;;;;;4875542;29;20044;-73
2022/10/15 11:41:55;;;;;;;88.10;45.17;;;19.80;99.90;;;;;;4780535;30;20110;-74
2022/10/15 11:44:59;;;;;;;80.38;41.85;;;19.80;99.90;;;;;;4838540;29;20055;-73
2022/10/15 11:47:44;;;;;;;89.30;44.30;;;19.70;99.90;;;;;;4829483;29;20047;-73
2022/10/15 11:50:26;;;;;;;84.05;43.10;;;19.80;99.90;;;;;;4892736;29;20021;-73
2022/10/15 11:52:52;;;;;;;;;;;19.80;99.90;;;;;;4894884;29;20039;-73
2022/10/15 11:55:38;;;;;;;78.22;42.63;;;19.80;99.90;;;;;;4897067;29;19907;-74
2022/10/15 11:58:12;;;;;;;81.78;43.90;;;19.80;99.90;;;;;;4897162;29;20031;-73
2022/10/15 12:00:55;;;;;;;82.72;41.38;;;19.80;99.90;;;;;;4897299;29;20040;-73
2022/10/15 12:03:25;;;;;;;83.13;42.85;;;19.80;99.90;;;;;;4896467;29;20032;-73
2022/10/15 12:06:10;;;;;;;88.38;43.42;;;19.80;99.90;;;;;;4896560;29;20040;-73
2022/10/15 12:08:38;;;;;;;93.55;43.08;;;19.80;99.90;;;;;;4894368;29;20391;-73
2022/10/15 12:11:23;;;;;;;85.05;41.67;;;19.80;99.90;;;;;;4892873;29;20106;-74
2022/10/15 12:13:51;;;;;;;84.03;43.83;;;19.80;99.90;;;;;;4888404;29;20487;-74
2022/10/15 12:16:38;;;;;;;80.20;41.17;;;19.70;99.90;;;;;;4889146;29;20033;-74
2022/10/15 12:19:15;;;;;;;86.65;43.17;;;19.70;99.90;;;;;;4890803;29;20044;-74
2022/10/15 12:21:53;;;;;;;87.28;43.72;;;19.70;99.90;;;;;;4890155;29;20042;-74
2022/10/15 12:24:38;;;;;;;85.47;43.17;;;19.70;99.90;;;;;;4892178;29;20122;-74
2022/10/15 12:27:19;;;;;;;89.47;43.72;;;19.70;99.90;;;;;;4892950;29;20031;-74
2022/10/15 12:29:47;;;;;;;85.10;44.42;;;19.70;99.90;;;;;;4892673;29;20080;-74
2022/10/15 12:32:44;;;;;;;81.13;43.00;;;19.80;99.90;;;;;;4894042;29;20515;-74
2022/10/15 12:35:13;;;;;;;82.88;41.60;;;19.70;99.90;;;;;;4893487;29;20032;-74
2022/10/15 12:37:41;;;;;;;83.43;42.58;;;19.80;99.90;;;;;;4894830;29;20097;-74
2022/10/15 12:40:29;;;;;;;82.43;43.42;;;19.80;99.90;;;;;;4894689;29;20104;-74
2022/10/15 12:43:02;;;;;;;84.00;42.72;;;19.90;99.90;;;;;;4893687;29;20052;-74
2022/10/15 12:45:37;;;;;;;78.70;41.20;;;19.90;99.90;;;;;;4894298;29;20363;-74
2022/10/15 12:48:03;;;;;;;78.28;39.63;;;19.90;99.90;;;;;;4894771;29;20025;-74